sensor_id;sensor_type;location;lat;lon;timestamp;P1;durP1;ratioP1;P2;durP2;ratioP2
11763;SDS011;5939;56.522;14.950;2022-12-20T00:01:13;4.23;;;3.00;;
11763;SDS011;5939;56.522;14.950;2022-12-20T00:03:41;3.33;;;2.70;;
11763;SDS011;5939;56.522;14.950;2022-12-20T00:06:08;4.37;;;3.00;;
11763;SDS011;5939;56.522;14.950;2022-12-20T00:08:35;3.23;;;2.80;;
11763;SDS011;5939;56.522;14.950;2022-12-20T00:11:02;3.60;;;3.03;;
11763;SDS011;5939;56.522;14.950;2022-12-20T00:13:30;4.07;;;3.20;;
11763;SDS011;5939;56.522;14.950;2022-12-20T00:16:10;3.93;;;2.80;;
11763;SDS011;5939;56.522;14.950;2022-12-20T00:18:38;3.63;;;2.83;;
11763;SDS011;5939;56.522;14.950;2022-12-20T00:21:05;3.13;;;2.53;;
11763;SDS011;5939;56.522;14.950;2022-12-20T00:23:33;3.97;;;2.97;;
11763;SDS011;5939;56.522;14.950;2022-12-20T00:26:06;4.37;;;2.50;;
11763;SDS011;5939;56.522;14.950;2022-12-20T00:28:37;2.67;;;2.30;;
11763;SDS011;5939;56.522;14.950;2022-12-20T00:31:04;3.00;;;2.60;;
11763;SDS011;5939;56.522;14.950;2022-12-20T00:33:31;3.57;;;3.00;;
11763;SDS011;5939;56.522;14.950;2022-12-20T00:35:57;3.27;;;2.73;;
11763;SDS011;5939;56.522;14.950;2022-12-20T00:38:23;2.57;;;2.37;;
11763;SDS011;5939;56.522;14.950;2022-12-20T00:41:00;3.27;;;2.60;;
11763;SDS011;5939;56.522;14.950;2022-12-20T00:43:25;3.77;;;2.50;;
11763;SDS011;5939;56.522;14.950;2022-12-20T00:45:51;2.40;;;2.20;;
11763;SDS011;5939;56.522;14.950;2022-12-20T00:48:17;3.07;;;2.40;;
11763;SDS011;5939;56.522;14.950;2022-12-20T00:50:43;3.07;;;2.50;;
11763;SDS011;5939;56.522;14.950;2022-12-20T00:53:08;4.13;;;2.73;;
11763;SDS011;5939;56.522;14.950;2022-12-20T00:55:34;2.57;;;2.10;;
11763;SDS011;5939;56.522;14.950;2022-12-20T00:58:06;2.77;;;2.07;;
11763;SDS011;5939;56.522;14.950;2022-12-20T01:00:31;2.50;;;2.10;;
11763;SDS011;5939;56.522;14.950;2022-12-20T01:02:57;3.57;;;1.93;;
11763;SDS011;5939;56.522;14.950;2022-12-20T01:05:23;2.50;;;2.20;;
11763;SDS011;5939;56.522;14.950;2022-12-20T01:07:48;2.70;;;2.23;;
11763;SDS011;5939;56.522;14.950;2022-12-20T01:10:14;2.50;;;2.00;;
11763;SDS011;5939;56.522;14.950;2022-12-20T01:12:40;2.17;;;1.87;;
11763;SDS011;5939;56.522;14.950;2022-12-20T01:15:05;2.03;;;1.83;;
11763;SDS011;5939;56.522;14.950;2022-12-20T01:17:31;2.30;;;2.00;;
11763;SDS011;5939;56.522;14.950;2022-12-20T01:19:57;2.30;;;1.97;;
11763;SDS011;5939;56.522;14.950;2022-12-20T01:22:23;3.10;;;2.00;;
11763;SDS011;5939;56.522;14.950;2022-12-20T01:24:48;2.60;;;2.00;;
11763;SDS011;5939;56.522;14.950;2022-12-20T01:27:14;2.00;;;1.80;;
11763;SDS011;5939;56.522;14.950;2022-12-20T01:29:40;2.00;;;1.80;;
11763;SDS011;5939;56.522;14.950;2022-12-20T01:32:05;2.30;;;2.10;;
11763;SDS011;5939;56.522;14.950;2022-12-20T01:34:31;2.50;;;1.90;;
11763;SDS011;5939;56.522;14.950;2022-12-20T01:36:56;1.60;;;1.50;;
11763;SDS011;5939;56.522;14.950;2022-12-20T01:39:22;2.07;;;1.80;;
11763;SDS011;5939;56.522;14.950;2022-12-20T01:41:48;2.40;;;1.77;;
11763;SDS011;5939;56.522;14.950;2022-12-20T01:46:43;2.23;;;1.80;;
11763;SDS011;5939;56.522;14.950;2022-12-20T01:49:13;1.97;;;1.50;;
11763;SDS011;5939;56.522;14.950;2022-12-20T01:51:44;2.03;;;1.70;;
11763;SDS011;5939;56.522;14.950;2022-12-20T01:54:14;2.07;;;1.80;;
11763;SDS011;5939;56.522;14.950;2022-12-20T01:56:46;2.03;;;1.67;;
11763;SDS011;5939;56.522;14.950;2022-12-20T01:59:17;2.10;;;1.77;;
11763;SDS011;5939;56.522;14.950;2022-12-20T02:01:44;1.60;;;1.47;;
11763;SDS011;5939;56.522;14.950;2022-12-20T02:04:10;2.30;;;1.90;;
11763;SDS011;5939;56.522;14.950;2022-12-20T02:06:35;3.03;;;1.87;;
11763;SDS011;5939;56.522;14.950;2022-12-20T02:09:02;2.33;;;1.70;;
11763;SDS011;5939;56.522;14.950;2022-12-20T02:14:27;2.43;;;1.80;;
11763;SDS011;5939;56.522;14.950;2022-12-20T02:31:27;1.80;;;1.60;;
11763;SDS011;5939;56.522;14.950;2022-12-20T02:33:57;2.57;;;2.10;;
11763;SDS011;5939;56.522;14.950;2022-12-20T02:36:24;3.00;;;1.77;;
11763;SDS011;5939;56.522;14.950;2022-12-20T02:38:49;2.43;;;2.00;;
11763;SDS011;5939;56.522;14.950;2022-12-20T02:43:44;1.67;;;1.43;;
11763;SDS011;5939;56.522;14.950;2022-12-20T02:46:34;2.13;;;1.90;;
11763;SDS011;5939;56.522;14.950;2022-12-20T02:49:02;2.10;;;1.70;;
11763;SDS011;5939;56.522;14.950;2022-12-20T02:51:33;2.10;;;1.80;;
11763;SDS011;5939;56.522;14.950;2022-12-20T02:53:59;1.73;;;1.40;;
11763;SDS011;5939;56.522;14.950;2022-12-20T02:56:32;2.00;;;1.57;;
11763;SDS011;5939;56.522;14.950;2022-12-20T02:59:17;1.90;;;1.67;;
11763;SDS011;5939;56.522;14.950;2022-12-20T03:01:47;2.17;;;1.60;;
11763;SDS011;5939;56.522;14.950;2022-12-20T03:04:20;2.10;;;1.90;;
11763;SDS011;5939;56.522;14.950;2022-12-20T03:07:00;2.03;;;1.73;;
11763;SDS011;5939;56.522;14.950;2022-12-20T03:09:38;2.10;;;1.50;;
11763;SDS011;5939;56.522;14.950;2022-12-20T03:12:06;1.40;;;1.27;;
11763;SDS011;5939;56.522;14.950;2022-12-20T03:14:32;1.97;;;1.60;;
11763;SDS011;5939;56.522;14.950;2022-12-20T03:16:58;1.67;;;1.40;;
11763;SDS011;5939;56.522;14.950;2022-12-20T03:19:24;2.03;;;1.70;;
11763;SDS011;5939;56.522;14.950;2022-12-20T03:21:50;2.03;;;1.50;;
11763;SDS011;5939;56.522;14.950;2022-12-20T03:24:16;2.20;;;1.67;;
11763;SDS011;5939;56.522;14.950;2022-12-20T03:26:42;1.67;;;1.50;;
11763;SDS011;5939;56.522;14.950;2022-12-20T03:29:08;2.00;;;1.80;;
11763;SDS011;5939;56.522;14.950;2022-12-20T03:31:34;2.20;;;1.80;;
11763;SDS011;5939;56.522;14.950;2022-12-20T03:34:01;1.77;;;1.50;;
11763;SDS011;5939;56.522;14.950;2022-12-20T03:36:27;1.60;;;1.50;;
11763;SDS011;5939;56.522;14.950;2022-12-20T03:38:53;1.87;;;1.47;;
11763;SDS011;5939;56.522;14.950;2022-12-20T03:41:20;1.67;;;1.50;;
11763;SDS011;5939;56.522;14.950;2022-12-20T03:43:46;2.00;;;1.50;;
11763;SDS011;5939;56.522;14.950;2022-12-20T03:46:12;1.30;;;1.20;;
11763;SDS011;5939;56.522;14.950;2022-12-20T03:48:38;1.53;;;1.43;;
11763;SDS011;5939;56.522;14.950;2022-12-20T03:51:04;1.53;;;1.43;;
11763;SDS011;5939;56.522;14.950;2022-12-20T03:53:30;1.40;;;1.30;;
11763;SDS011;5939;56.522;14.950;2022-12-20T03:55:56;1.43;;;1.33;;
11763;SDS011;5939;56.522;14.950;2022-12-20T03:58:21;1.50;;;1.40;;
11763;SDS011;5939;56.522;14.950;2022-12-20T04:00:47;1.47;;;1.37;;
11763;SDS011;5939;56.522;14.950;2022-12-20T04:03:13;1.37;;;1.27;;
11763;SDS011;5939;56.522;14.950;2022-12-20T04:05:38;1.80;;;1.40;;
11763;SDS011;5939;56.522;14.950;2022-12-20T04:08:04;1.90;;;1.70;;
11763;SDS011;5939;56.522;14.950;2022-12-20T04:10:29;1.40;;;1.30;;
11763;SDS011;5939;56.522;14.950;2022-12-20T04:12:55;1.60;;;1.40;;
11763;SDS011;5939;56.522;14.950;2022-12-20T04:15:21;1.73;;;1.50;;
11763;SDS011;5939;56.522;14.950;2022-12-20T04:17:46;1.57;;;1.47;;
11763;SDS011;5939;56.522;14.950;2022-12-20T04:20:13;1.77;;;1.33;;
11763;SDS011;5939;56.522;14.950;2022-12-20T04:22:50;1.80;;;1.60;;
11763;SDS011;5939;56.522;14.950;2022-12-20T04:25:17;1.77;;;1.47;;
11763;SDS011;5939;56.522;14.950;2022-12-20T04:27:44;1.50;;;1.40;;
11763;SDS011;5939;56.522;14.950;2022-12-20T04:30:10;1.70;;;1.60;;
11763;SDS011;5939;56.522;14.950;2022-12-20T04:32:38;1.67;;;1.53;;
11763;SDS011;5939;56.522;14.950;2022-12-20T04:35:03;1.70;;;1.60;;
11763;SDS011;5939;56.522;14.950;2022-12-20T04:37:29;1.50;;;1.40;;
11763;SDS011;5939;56.522;14.950;2022-12-20T04:39:55;1.50;;;1.40;;
11763;SDS011;5939;56.522;14.950;2022-12-20T04:42:22;1.20;;;1.10;;
11763;SDS011;5939;56.522;14.950;2022-12-20T04:44:48;1.60;;;1.30;;
11763;SDS011;5939;56.522;14.950;2022-12-20T04:47:14;1.70;;;1.60;;
11763;SDS011;5939;56.522;14.950;2022-12-20T04:49:40;1.90;;;1.60;;
11763;SDS011;5939;56.522;14.950;2022-12-20T04:52:05;1.53;;;1.20;;
11763;SDS011;5939;56.522;14.950;2022-12-20T04:54:49;1.80;;;1.40;;
11763;SDS011;5939;56.522;14.950;2022-12-20T04:57:15;1.47;;;1.30;;
11763;SDS011;5939;56.522;14.950;2022-12-20T04:59:41;1.60;;;1.50;;
11763;SDS011;5939;56.522;14.950;2022-12-20T05:02:06;1.50;;;1.40;;
11763;SDS011;5939;56.522;14.950;2022-12-20T05:04:32;1.47;;;1.37;;
11763;SDS011;5939;56.522;14.950;2022-12-20T05:06:57;1.77;;;1.57;;
11763;SDS011;5939;56.522;14.950;2022-12-20T05:09:23;1.90;;;1.60;;
11763;SDS011;5939;56.522;14.950;2022-12-20T05:11:49;1.67;;;1.50;;
11763;SDS011;5939;56.522;14.950;2022-12-20T05:14:14;1.77;;;1.50;;
11763;SDS011;5939;56.522;14.950;2022-12-20T05:16:40;2.03;;;1.80;;
11763;SDS011;5939;56.522;14.950;2022-12-20T05:19:05;1.80;;;1.53;;
11763;SDS011;5939;56.522;14.950;2022-12-20T05:21:31;2.30;;;2.10;;
11763;SDS011;5939;56.522;14.950;2022-12-20T05:24:15;1.47;;;1.37;;
11763;SDS011;5939;56.522;14.950;2022-12-20T05:26:59;2.00;;;1.70;;
11763;SDS011;5939;56.522;14.950;2022-12-20T05:29:25;2.20;;;1.80;;
11763;SDS011;5939;56.522;14.950;2022-12-20T05:31:50;2.00;;;1.80;;
11763;SDS011;5939;56.522;14.950;2022-12-20T05:34:16;2.50;;;2.03;;
11763;SDS011;5939;56.522;14.950;2022-12-20T05:36:42;2.37;;;2.17;;
11763;SDS011;5939;56.522;14.950;2022-12-20T05:39:07;2.77;;;2.33;;
11763;SDS011;5939;56.522;14.950;2022-12-20T05:41:33;2.73;;;2.20;;
11763;SDS011;5939;56.522;14.950;2022-12-20T05:43:59;2.60;;;2.00;;
11763;SDS011;5939;56.522;14.950;2022-12-20T05:46:24;3.17;;;2.43;;
11763;SDS011;5939;56.522;14.950;2022-12-20T05:48:50;2.30;;;2.10;;
11763;SDS011;5939;56.522;14.950;2022-12-20T05:51:16;3.63;;;2.50;;
11763;SDS011;5939;56.522;14.950;2022-12-20T05:53:42;3.43;;;2.60;;
11763;SDS011;5939;56.522;14.950;2022-12-20T05:56:07;3.67;;;2.50;;
11763;SDS011;5939;56.522;14.950;2022-12-20T05:58:33;3.27;;;2.30;;
11763;SDS011;5939;56.522;14.950;2022-12-20T06:00:59;3.13;;;2.37;;
11763;SDS011;5939;56.522;14.950;2022-12-20T06:03:26;2.87;;;2.20;;
11763;SDS011;5939;56.522;14.950;2022-12-20T06:05:52;3.30;;;2.53;;
11763;SDS011;5939;56.522;14.950;2022-12-20T06:08:18;4.17;;;2.97;;
11763;SDS011;5939;56.522;14.950;2022-12-20T06:10:45;3.53;;;2.70;;
11763;SDS011;5939;56.522;14.950;2022-12-20T06:13:12;3.87;;;3.00;;
11763;SDS011;5939;56.522;14.950;2022-12-20T06:15:37;3.97;;;3.10;;
11763;SDS011;5939;56.522;14.950;2022-12-20T06:18:03;3.63;;;3.00;;
11763;SDS011;5939;56.522;14.950;2022-12-20T06:20:30;4.50;;;3.10;;
11763;SDS011;5939;56.522;14.950;2022-12-20T06:22:56;3.40;;;2.73;;
11763;SDS011;5939;56.522;14.950;2022-12-20T06:25:22;4.00;;;3.00;;
11763;SDS011;5939;56.522;14.950;2022-12-20T06:27:48;4.80;;;3.40;;
11763;SDS011;5939;56.522;14.950;2022-12-20T06:30:13;5.17;;;3.33;;
11763;SDS011;5939;56.522;14.950;2022-12-20T06:32:39;4.27;;;3.10;;
11763;SDS011;5939;56.522;14.950;2022-12-20T06:35:05;5.33;;;3.70;;
11763;SDS011;5939;56.522;14.950;2022-12-20T06:37:31;3.87;;;2.83;;
11763;SDS011;5939;56.522;14.950;2022-12-20T06:39:57;5.47;;;3.20;;
11763;SDS011;5939;56.522;14.950;2022-12-20T06:42:24;4.93;;;3.63;;
11763;SDS011;5939;56.522;14.950;2022-12-20T06:44:49;3.93;;;2.97;;
11763;SDS011;5939;56.522;14.950;2022-12-20T06:47:15;4.60;;;3.30;;
11763;SDS011;5939;56.522;14.950;2022-12-20T06:49:40;5.27;;;3.40;;
11763;SDS011;5939;56.522;14.950;2022-12-20T06:52:06;5.17;;;3.77;;
11763;SDS011;5939;56.522;14.950;2022-12-20T06:54:32;3.83;;;2.83;;
11763;SDS011;5939;56.522;14.950;2022-12-20T06:56:57;4.37;;;3.23;;
11763;SDS011;5939;56.522;14.950;2022-12-20T06:59:23;4.00;;;3.60;;
11763;SDS011;5939;56.522;14.950;2022-12-20T07:01:48;5.73;;;3.77;;
11763;SDS011;5939;56.522;14.950;2022-12-20T07:04:14;3.97;;;3.20;;
11763;SDS011;5939;56.522;14.950;2022-12-20T07:06:40;5.07;;;3.47;;
11763;SDS011;5939;56.522;14.950;2022-12-20T07:09:06;3.97;;;3.20;;
11763;SDS011;5939;56.522;14.950;2022-12-20T07:11:33;4.40;;;3.37;;
11763;SDS011;5939;56.522;14.950;2022-12-20T07:13:59;5.50;;;3.80;;
11763;SDS011;5939;56.522;14.950;2022-12-20T07:16:24;5.30;;;3.80;;
11763;SDS011;5939;56.522;14.950;2022-12-20T07:18:53;4.73;;;3.57;;
11763;SDS011;5939;56.522;14.950;2022-12-20T07:21:19;4.70;;;3.50;;
11763;SDS011;5939;56.522;14.950;2022-12-20T07:23:46;4.67;;;3.40;;
11763;SDS011;5939;56.522;14.950;2022-12-20T07:26:12;4.13;;;3.10;;
11763;SDS011;5939;56.522;14.950;2022-12-20T07:28:38;4.43;;;3.33;;
11763;SDS011;5939;56.522;14.950;2022-12-20T07:31:04;5.33;;;3.27;;
11763;SDS011;5939;56.522;14.950;2022-12-20T07:33:30;4.80;;;3.27;;
11763;SDS011;5939;56.522;14.950;2022-12-20T07:36:03;4.60;;;3.70;;
11763;SDS011;5939;56.522;14.950;2022-12-20T07:38:35;4.67;;;3.30;;
11763;SDS011;5939;56.522;14.950;2022-12-20T07:41:07;4.97;;;3.57;;
11763;SDS011;5939;56.522;14.950;2022-12-20T07:43:34;5.30;;;3.93;;
11763;SDS011;5939;56.522;14.950;2022-12-20T07:46:00;4.30;;;3.40;;
11763;SDS011;5939;56.522;14.950;2022-12-20T07:48:27;4.53;;;3.33;;
11763;SDS011;5939;56.522;14.950;2022-12-20T07:50:53;5.13;;;3.63;;
11763;SDS011;5939;56.522;14.950;2022-12-20T07:53:23;5.57;;;3.30;;
11763;SDS011;5939;56.522;14.950;2022-12-20T07:55:51;5.37;;;3.90;;
11763;SDS011;5939;56.522;14.950;2022-12-20T07:58:17;4.20;;;3.37;;
11763;SDS011;5939;56.522;14.950;2022-12-20T08:00:44;4.70;;;3.53;;
11763;SDS011;5939;56.522;14.950;2022-12-20T08:05:43;5.70;;;4.30;;
11763;SDS011;5939;56.522;14.950;2022-12-20T08:08:14;4.80;;;3.37;;
11763;SDS011;5939;56.522;14.950;2022-12-20T08:10:41;4.43;;;3.53;;
11763;SDS011;5939;56.522;14.950;2022-12-20T08:13:07;5.73;;;4.40;;
11763;SDS011;5939;56.522;14.950;2022-12-20T08:15:33;4.60;;;3.57;;
11763;SDS011;5939;56.522;14.950;2022-12-20T08:18:00;5.20;;;4.00;;
11763;SDS011;5939;56.522;14.950;2022-12-20T08:20:26;5.00;;;3.80;;
11763;SDS011;5939;56.522;14.950;2022-12-20T08:22:51;5.30;;;3.73;;
11763;SDS011;5939;56.522;14.950;2022-12-20T08:25:17;4.23;;;3.50;;
11763;SDS011;5939;56.522;14.950;2022-12-20T08:27:43;5.13;;;3.73;;
11763;SDS011;5939;56.522;14.950;2022-12-20T08:30:09;5.27;;;3.70;;
11763;SDS011;5939;56.522;14.950;2022-12-20T08:32:35;5.13;;;3.83;;
11763;SDS011;5939;56.522;14.950;2022-12-20T08:35:02;4.90;;;3.53;;
11763;SDS011;5939;56.522;14.950;2022-12-20T08:37:28;5.63;;;3.80;;
11763;SDS011;5939;56.522;14.950;2022-12-20T08:39:53;4.60;;;3.73;;
11763;SDS011;5939;56.522;14.950;2022-12-20T08:42:19;5.53;;;3.87;;
11763;SDS011;5939;56.522;14.950;2022-12-20T08:44:45;5.73;;;4.30;;
11763;SDS011;5939;56.522;14.950;2022-12-20T08:47:10;5.17;;;3.70;;
11763;SDS011;5939;56.522;14.950;2022-12-20T08:49:36;5.50;;;3.87;;
11763;SDS011;5939;56.522;14.950;2022-12-20T08:52:02;4.07;;;3.37;;
11763;SDS011;5939;56.522;14.950;2022-12-20T08:54:27;4.47;;;3.60;;
11763;SDS011;5939;56.522;14.950;2022-12-20T08:56:53;4.20;;;3.47;;
11763;SDS011;5939;56.522;14.950;2022-12-20T08:59:19;5.43;;;3.67;;
11763;SDS011;5939;56.522;14.950;2022-12-20T09:01:44;3.83;;;3.20;;
11763;SDS011;5939;56.522;14.950;2022-12-20T09:04:10;3.80;;;3.40;;
11763;SDS011;5939;56.522;14.950;2022-12-20T09:06:36;5.27;;;3.67;;
11763;SDS011;5939;56.522;14.950;2022-12-20T09:09:02;5.93;;;4.10;;
11763;SDS011;5939;56.522;14.950;2022-12-20T09:11:29;4.03;;;3.63;;
11763;SDS011;5939;56.522;14.950;2022-12-20T09:13:55;5.03;;;3.67;;
11763;SDS011;5939;56.522;14.950;2022-12-20T09:16:23;4.60;;;3.37;;
11763;SDS011;5939;56.522;14.950;2022-12-20T09:18:52;5.27;;;3.97;;
11763;SDS011;5939;56.522;14.950;2022-12-20T09:21:19;4.47;;;3.57;;
11763;SDS011;5939;56.522;14.950;2022-12-20T09:23:45;4.40;;;3.33;;
11763;SDS011;5939;56.522;14.950;2022-12-20T09:26:14;3.90;;;3.50;;
11763;SDS011;5939;56.522;14.950;2022-12-20T09:28:40;4.70;;;3.20;;
11763;SDS011;5939;56.522;14.950;2022-12-20T09:31:09;4.23;;;3.80;;
11763;SDS011;5939;56.522;14.950;2022-12-20T09:33:36;4.53;;;3.37;;
11763;SDS011;5939;56.522;14.950;2022-12-20T09:36:02;4.63;;;3.97;;
11763;SDS011;5939;56.522;14.950;2022-12-20T09:38:28;4.33;;;3.33;;
11763;SDS011;5939;56.522;14.950;2022-12-20T09:40:57;4.90;;;3.80;;
11763;SDS011;5939;56.522;14.950;2022-12-20T09:43:25;4.57;;;3.80;;
11763;SDS011;5939;56.522;14.950;2022-12-20T09:45:53;5.17;;;3.90;;
11763;SDS011;5939;56.522;14.950;2022-12-20T09:48:38;5.37;;;4.07;;
11763;SDS011;5939;56.522;14.950;2022-12-20T09:56:31;4.80;;;4.17;;
11763;SDS011;5939;56.522;14.950;2022-12-20T10:01:27;6.17;;;4.00;;
11763;SDS011;5939;56.522;14.950;2022-12-20T10:03:55;4.77;;;3.90;;
11763;SDS011;5939;56.522;14.950;2022-12-20T10:12:49;4.23;;;3.40;;
11763;SDS011;5939;56.522;14.950;2022-12-20T10:15:12;4.80;;;3.77;;
11763;SDS011;5939;56.522;14.950;2022-12-20T10:23:24;5.63;;;4.07;;
11763;SDS011;5939;56.522;14.950;2022-12-20T10:26:21;5.50;;;3.90;;
11763;SDS011;5939;56.522;14.950;2022-12-20T10:28:47;5.40;;;4.10;;
11763;SDS011;5939;56.522;14.950;2022-12-20T10:31:15;6.63;;;4.80;;
11763;SDS011;5939;56.522;14.950;2022-12-20T10:33:42;6.00;;;4.43;;
11763;SDS011;5939;56.522;14.950;2022-12-20T10:36:22;6.17;;;4.23;;
11763;SDS011;5939;56.522;14.950;2022-12-20T10:38:51;5.57;;;3.63;;
11763;SDS011;5939;56.522;14.950;2022-12-20T10:41:25;5.47;;;4.00;;
11763;SDS011;5939;56.522;14.950;2022-12-20T10:49:30;5.73;;;4.37;;
11763;SDS011;5939;56.522;14.950;2022-12-20T10:51:58;4.60;;;3.40;;
11763;SDS011;5939;56.522;14.950;2022-12-20T10:54:30;4.60;;;3.57;;
11763;SDS011;5939;56.522;14.950;2022-12-20T10:56:59;6.00;;;4.00;;
11763;SDS011;5939;56.522;14.950;2022-12-20T10:59:38;6.20;;;4.00;;
11763;SDS011;5939;56.522;14.950;2022-12-20T11:02:23;5.53;;;3.70;;
11763;SDS011;5939;56.522;14.950;2022-12-20T11:07:37;6.47;;;4.27;;
11763;SDS011;5939;56.522;14.950;2022-12-20T11:10:20;6.20;;;4.20;;
11763;SDS011;5939;56.522;14.950;2022-12-20T11:12:54;4.97;;;3.73;;
11763;SDS011;5939;56.522;14.950;2022-12-20T11:15:26;6.30;;;4.80;;
11763;SDS011;5939;56.522;14.950;2022-12-20T11:20:41;5.90;;;4.40;;
11763;SDS011;5939;56.522;14.950;2022-12-20T11:26:23;6.13;;;4.90;;
11763;SDS011;5939;56.522;14.950;2022-12-20T11:28:55;6.87;;;4.93;;
11763;SDS011;5939;56.522;14.950;2022-12-20T11:32:35;5.90;;;4.77;;
11763;SDS011;5939;56.522;14.950;2022-12-20T11:37:28;5.70;;;4.20;;
11763;SDS011;5939;56.522;14.950;2022-12-20T11:40:22;6.00;;;4.40;;
11763;SDS011;5939;56.522;14.950;2022-12-20T11:46:04;4.47;;;3.57;;
11763;SDS011;5939;56.522;14.950;2022-12-20T11:51:22;4.50;;;3.57;;
11763;SDS011;5939;56.522;14.950;2022-12-20T11:56:39;4.80;;;3.90;;
11763;SDS011;5939;56.522;14.950;2022-12-20T12:02:04;4.63;;;4.00;;
11763;SDS011;5939;56.522;14.950;2022-12-20T12:04:37;4.87;;;4.00;;
11763;SDS011;5939;56.522;14.950;2022-12-20T12:07:14;5.50;;;4.03;;
11763;SDS011;5939;56.522;14.950;2022-12-20T12:10:03;4.30;;;3.33;;
11763;SDS011;5939;56.522;14.950;2022-12-20T12:12:44;5.00;;;3.33;;
11763;SDS011;5939;56.522;14.950;2022-12-20T12:18:21;4.63;;;3.43;;
11763;SDS011;5939;56.522;14.950;2022-12-20T12:20:53;4.90;;;3.80;;
11763;SDS011;5939;56.522;14.950;2022-12-20T12:26:33;4.63;;;3.70;;
11763;SDS011;5939;56.522;14.950;2022-12-20T12:41:56;4.30;;;3.47;;
11763;SDS011;5939;56.522;14.950;2022-12-20T12:44:59;4.27;;;3.30;;
11763;SDS011;5939;56.522;14.950;2022-12-20T12:48:10;5.10;;;3.63;;
11763;SDS011;5939;56.522;14.950;2022-12-20T12:50:48;4.03;;;3.27;;
11763;SDS011;5939;56.522;14.950;2022-12-20T12:53:18;4.70;;;3.60;;
11763;SDS011;5939;56.522;14.950;2022-12-20T12:55:53;4.20;;;3.40;;
11763;SDS011;5939;56.522;14.950;2022-12-20T13:11:41;4.33;;;3.73;;
11763;SDS011;5939;56.522;14.950;2022-12-20T13:16:42;4.37;;;3.50;;
11763;SDS011;5939;56.522;14.950;2022-12-20T13:19:13;4.40;;;3.47;;
11763;SDS011;5939;56.522;14.950;2022-12-20T13:21:41;4.23;;;3.83;;
11763;SDS011;5939;56.522;14.950;2022-12-20T13:27:16;4.77;;;4.00;;
11763;SDS011;5939;56.522;14.950;2022-12-20T13:30:00;5.47;;;4.10;;
11763;SDS011;5939;56.522;14.950;2022-12-20T13:40:18;4.57;;;3.87;;
11763;SDS011;5939;56.522;14.950;2022-12-20T13:42:55;4.57;;;3.63;;
11763;SDS011;5939;56.522;14.950;2022-12-20T13:45:21;5.17;;;3.97;;
11763;SDS011;5939;56.522;14.950;2022-12-20T13:47:48;5.10;;;4.60;;
11763;SDS011;5939;56.522;14.950;2022-12-20T13:50:24;4.57;;;3.97;;
11763;SDS011;5939;56.522;14.950;2022-12-20T13:53:04;4.40;;;3.80;;
11763;SDS011;5939;56.522;14.950;2022-12-20T13:55:35;4.80;;;3.77;;
11763;SDS011;5939;56.522;14.950;2022-12-20T13:58:05;5.60;;;4.20;;
11763;SDS011;5939;56.522;14.950;2022-12-20T14:00:41;4.03;;;3.47;;
11763;SDS011;5939;56.522;14.950;2022-12-20T14:03:18;3.93;;;3.47;;
11763;SDS011;5939;56.522;14.950;2022-12-20T14:05:46;5.27;;;3.70;;
11763;SDS011;5939;56.522;14.950;2022-12-20T14:08:13;3.90;;;3.30;;
11763;SDS011;5939;56.522;14.950;2022-12-20T14:10:42;3.87;;;3.40;;
11763;SDS011;5939;56.522;14.950;2022-12-20T14:13:22;4.40;;;3.57;;
11763;SDS011;5939;56.522;14.950;2022-12-20T14:15:49;4.30;;;3.87;;
11763;SDS011;5939;56.522;14.950;2022-12-20T14:20:41;4.20;;;3.40;;
11763;SDS011;5939;56.522;14.950;2022-12-20T14:23:09;4.43;;;3.70;;
11763;SDS011;5939;56.522;14.950;2022-12-20T14:25:46;5.10;;;3.50;;
11763;SDS011;5939;56.522;14.950;2022-12-20T14:28:17;5.07;;;3.60;;
11763;SDS011;5939;56.522;14.950;2022-12-20T14:30:46;3.83;;;3.43;;
11763;SDS011;5939;56.522;14.950;2022-12-20T14:33:19;4.03;;;3.50;;
11763;SDS011;5939;56.522;14.950;2022-12-20T14:35:50;3.47;;;3.00;;
11763;SDS011;5939;56.522;14.950;2022-12-20T14:38:20;4.10;;;3.03;;
11763;SDS011;5939;56.522;14.950;2022-12-20T14:40:53;3.43;;;3.10;;
11763;SDS011;5939;56.522;14.950;2022-12-20T14:43:25;4.30;;;3.40;;
11763;SDS011;5939;56.522;14.950;2022-12-20T14:46:07;4.00;;;3.60;;
11763;SDS011;5939;56.522;14.950;2022-12-20T14:48:44;3.80;;;3.27;;
11763;SDS011;5939;56.522;14.950;2022-12-20T14:51:11;3.73;;;3.20;;
11763;SDS011;5939;56.522;14.950;2022-12-20T14:53:38;4.40;;;3.13;;
11763;SDS011;5939;56.522;14.950;2022-12-20T14:56:04;4.17;;;3.50;;
11763;SDS011;5939;56.522;14.950;2022-12-20T14:58:37;3.33;;;3.00;;
11763;SDS011;5939;56.522;14.950;2022-12-20T15:04:39;3.40;;;3.10;;
11763;SDS011;5939;56.522;14.950;2022-12-20T15:06:45;3.50;;;2.80;;
11763;SDS011;5939;56.522;14.950;2022-12-20T15:09:12;3.47;;;3.00;;
11763;SDS011;5939;56.522;14.950;2022-12-20T15:11:38;2.70;;;2.50;;
11763;SDS011;5939;56.522;14.950;2022-12-20T15:17:04;3.83;;;3.27;;
11763;SDS011;5939;56.522;14.950;2022-12-20T15:19:34;3.83;;;3.20;;
11763;SDS011;5939;56.522;14.950;2022-12-20T15:22:00;4.00;;;3.00;;
11763;SDS011;5939;56.522;14.950;2022-12-20T15:24:26;3.30;;;2.93;;
11763;SDS011;5939;56.522;14.950;2022-12-20T15:26:52;3.67;;;3.30;;
11763;SDS011;5939;56.522;14.950;2022-12-20T15:29:27;3.60;;;3.20;;
11763;SDS011;5939;56.522;14.950;2022-12-20T15:32:04;3.73;;;3.30;;
11763;SDS011;5939;56.522;14.950;2022-12-20T15:34:37;3.90;;;3.27;;
11763;SDS011;5939;56.522;14.950;2022-12-20T15:37:03;3.10;;;2.80;;
11763;SDS011;5939;56.522;14.950;2022-12-20T15:39:30;3.10;;;2.80;;
11763;SDS011;5939;56.522;14.950;2022-12-20T15:41:57;3.60;;;2.90;;
11763;SDS011;5939;56.522;14.950;2022-12-20T15:44:26;3.00;;;2.70;;
11763;SDS011;5939;56.522;14.950;2022-12-20T15:46:53;2.73;;;2.50;;
11763;SDS011;5939;56.522;14.950;2022-12-20T15:49:20;3.40;;;3.00;;
11763;SDS011;5939;56.522;14.950;2022-12-20T15:51:49;3.73;;;3.30;;
11763;SDS011;5939;56.522;14.950;2022-12-20T15:56:59;3.97;;;3.40;;
11763;SDS011;5939;56.522;14.950;2022-12-20T15:59:27;3.30;;;3.00;;
11763;SDS011;5939;56.522;14.950;2022-12-20T16:01:53;3.57;;;3.27;;
11763;SDS011;5939;56.522;14.950;2022-12-20T16:04:20;4.67;;;3.60;;
11763;SDS011;5939;56.522;14.950;2022-12-20T16:06:46;3.80;;;3.40;;
11763;SDS011;5939;56.522;14.950;2022-12-20T16:09:14;4.70;;;3.47;;
11763;SDS011;5939;56.522;14.950;2022-12-20T16:11:40;3.20;;;2.73;;
11763;SDS011;5939;56.522;14.950;2022-12-20T16:14:14;3.53;;;3.03;;
11763;SDS011;5939;56.522;14.950;2022-12-20T16:16:41;3.63;;;3.33;;
11763;SDS011;5939;56.522;14.950;2022-12-20T16:19:08;3.63;;;2.60;;
11763;SDS011;5939;56.522;14.950;2022-12-20T16:21:35;4.03;;;3.10;;
11763;SDS011;5939;56.522;14.950;2022-12-20T16:24:11;3.60;;;3.30;;
11763;SDS011;5939;56.522;14.950;2022-12-20T16:26:38;4.83;;;3.90;;
11763;SDS011;5939;56.522;14.950;2022-12-20T16:29:04;4.10;;;3.47;;
11763;SDS011;5939;56.522;14.950;2022-12-20T16:31:31;3.80;;;3.30;;
11763;SDS011;5939;56.522;14.950;2022-12-20T16:33:59;3.53;;;3.10;;
11763;SDS011;5939;56.522;14.950;2022-12-20T16:36:27;3.83;;;3.43;;
11763;SDS011;5939;56.522;14.950;2022-12-20T16:38:53;3.67;;;3.27;;
11763;SDS011;5939;56.522;14.950;2022-12-20T16:41:20;4.50;;;3.30;;
11763;SDS011;5939;56.522;14.950;2022-12-20T16:43:48;3.50;;;3.17;;
11763;SDS011;5939;56.522;14.950;2022-12-20T16:46:15;3.50;;;3.20;;
11763;SDS011;5939;56.522;14.950;2022-12-20T16:48:42;4.63;;;3.63;;
11763;SDS011;5939;56.522;14.950;2022-12-20T16:51:27;4.17;;;3.60;;
11763;SDS011;5939;56.522;14.950;2022-12-20T16:53:54;5.00;;;4.30;;
11763;SDS011;5939;56.522;14.950;2022-12-20T16:56:21;3.33;;;3.03;;
11763;SDS011;5939;56.522;14.950;2022-12-20T16:58:47;4.97;;;3.97;;
11763;SDS011;5939;56.522;14.950;2022-12-20T17:01:15;4.53;;;3.70;;
11763;SDS011;5939;56.522;14.950;2022-12-20T17:03:43;5.23;;;4.67;;
11763;SDS011;5939;56.522;14.950;2022-12-20T17:06:10;3.50;;;3.20;;
11763;SDS011;5939;56.522;14.950;2022-12-20T17:08:37;4.07;;;3.67;;